createdAt,value
2017-03-13T00:00:16.871Z,5.1
2017-03-13T00:01:19.108Z,5.1
2017-03-13T00:02:21.376Z,5.1
2017-03-13T00:03:24.582Z,5.1
2017-03-13T00:04:27.149Z,5.1
2017-03-13T00:05:29.854Z,5.1
2017-03-13T00:06:32.093Z,5.1
2017-03-13T00:07:35.207Z,5.1
2017-03-13T00:08:37.452Z,5.1
2017-03-13T00:09:40.215Z,5.1
2017-03-13T00:10:42.038Z,5.1
2017-03-13T00:11:44.724Z,5.1
2017-03-13T00:12:46.580Z,5.1
2017-03-13T00:13:49.240Z,5
2017-03-13T00:14:52.229Z,5
2017-03-13T00:15:54.477Z,5
2017-03-13T00:16:57.563Z,5
2017-03-13T00:17:59.824Z,5
2017-03-13T00:19:02.047Z,5
2017-03-13T00:20:03.996Z,5
2017-03-13T00:21:07.101Z,5
2017-03-13T00:22:08.933Z,4.9
2017-03-13T00:23:10.750Z,4.9
2017-03-13T00:24:13.426Z,4.9
2017-03-13T00:25:15.251Z,5
2017-03-13T00:26:17.497Z,5
2017-03-13T00:27:19.341Z,4.9
2017-03-13T00:28:21.161Z,5
2017-03-13T00:29:23.897Z,5
2017-03-13T00:30:26.018Z,4.9
2017-03-13T00:31:28.433Z,4.9
2017-03-13T00:32:30.701Z,5
2017-03-13T00:33:33.112Z,4.9
2017-03-13T00:34:34.951Z,4.9
2017-03-13T00:35:37.765Z,4.9
2017-03-13T00:36:40.876Z,4.9
2017-03-13T00:37:43.109Z,4.9
2017-03-13T00:38:45.783Z,4.9
2017-03-13T00:39:47.608Z,4.9
2017-03-13T00:40:50.278Z,4.9
2017-03-13T00:41:52.186Z,4.8
2017-03-13T00:42:54.049Z,4.8
2017-03-13T00:43:57.145Z,4.8
2017-03-13T00:44:59.755Z,4.8
2017-03-13T00:46:02.003Z,4.8
2017-03-13T00:47:03.970Z,4.8
2017-03-13T00:48:05.789Z,4.8
2017-03-13T00:49:08.448Z,4.8
2017-03-13T00:50:11.589Z,4.8
2017-03-13T00:51:14.276Z,4.9
2017-03-13T00:52:17.507Z,4.9
2017-03-13T00:53:19.738Z,4.9
2017-03-13T00:54:22.842Z,4.9
2017-03-13T00:55:24.663Z,4.9
2017-03-13T00:56:28.285Z,4.9
2017-03-13T00:57:30.519Z,4.9
2017-03-13T00:58:32.334Z,4.9
2017-03-13T00:59:34.599Z,4.9
2017-03-13T01:00:36.438Z,4.9
2017-03-13T01:01:39.119Z,4.9
2017-03-13T01:02:41.766Z,4.9
2017-03-13T01:03:44.847Z,5
2017-03-13T01:04:47.445Z,5
2017-03-13T01:05:50.533Z,5
2017-03-13T01:06:52.819Z,5
2017-03-13T01:07:55.064Z,5
2017-03-13T01:08:57.308Z,5
2017-03-13T01:09:59.165Z,5
2017-03-13T01:11:01.036Z,5
2017-03-13T01:12:02.861Z,4.9
2017-03-13T01:13:05.112Z,4.9
2017-03-13T01:14:07.350Z,5
2017-03-13T01:15:10.171Z,4.9
2017-03-13T01:16:12.445Z,4.9
2017-03-13T01:17:14.683Z,4.9
2017-03-13T01:18:16.599Z,4.9
2017-03-13T01:19:18.899Z,4.9
2017-03-13T01:20:21.126Z,4.9
2017-03-13T01:21:22.943Z,4.8
2017-03-13T01:22:25.622Z,4.8
2017-03-13T01:23:27.883Z,4.8
2017-03-13T01:24:30.569Z,4.8
2017-03-13T01:25:32.821Z,4.7
2017-03-13T01:26:35.930Z,4.7
2017-03-13T01:27:38.195Z,4.7
2017-03-13T01:28:40.034Z,4.7
2017-03-13T01:29:41.925Z,4.6
2017-03-13T01:30:43.747Z,4.6
2017-03-13T01:31:46.002Z,4.6
2017-03-13T01:32:49.074Z,4.6
2017-03-13T01:33:51.744Z,4.5
2017-03-13T01:34:53.706Z,4.5
2017-03-13T01:35:55.951Z,4.5
2017-03-13T01:36:59.117Z,4.5
2017-03-13T01:38:01.774Z,4.5
2017-03-13T01:39:04.483Z,4.5
2017-03-13T01:40:06.289Z,4.4
2017-03-13T01:41:08.972Z,4.4
2017-03-13T01:42:10.878Z,4.4
2017-03-13T01:43:12.692Z,4.4
2017-03-13T01:44:14.523Z,4.4
2017-03-13T01:45:16.870Z,4.4
2017-03-13T01:46:18.706Z,4.4
2017-03-13T01:47:20.964Z,4.4
2017-03-13T01:48:23.225Z,4.4
2017-03-13T01:49:25.453Z,4.4
2017-03-13T01:50:28.575Z,4.4
2017-03-13T01:51:30.811Z,4.4
2017-03-13T01:52:33.480Z,4.4
2017-03-13T01:53:36.200Z,4.4
2017-03-13T01:54:38.443Z,4.4
2017-03-13T01:55:41.964Z,4.4
2017-03-13T01:56:44.622Z,4.4
2017-03-13T01:57:46.485Z,4.4
2017-03-13T01:58:49.160Z,4.4
2017-03-13T01:59:51.421Z,4.3
2017-03-13T02:00:54.161Z,4.4
2017-03-13T02:01:55.985Z,4.3
2017-03-13T02:02:57.821Z,4.3
2017-03-13T02:04:00.140Z,4.3
2017-03-13T02:05:02.801Z,4.3
2017-03-13T02:06:05.505Z,4.3
2017-03-13T02:07:07.753Z,4.3
2017-03-13T02:08:10.031Z,4.3
2017-03-13T02:09:11.934Z,4.3
2017-03-13T02:10:14.654Z,4.3
2017-03-13T02:11:17.312Z,4.2
2017-03-13T02:12:20.395Z,4.2
2017-03-13T02:13:23.488Z,4.2
2017-03-13T02:14:26.552Z,4.2
2017-03-13T02:15:28.877Z,4.2
2017-03-13T02:16:31.107Z,4.2
2017-03-13T02:17:34.290Z,4.2
2017-03-13T02:18:36.956Z,4.2
2017-03-13T02:19:39.209Z,4.3
2017-03-13T02:20:41.040Z,4.3
2017-03-13T02:21:43.306Z,4.2
2017-03-13T02:22:45.124Z,4.3
2017-03-13T02:23:47.385Z,4.2
2017-03-13T02:24:50.054Z,4.3
2017-03-13T02:25:52.459Z,4.3
2017-03-13T02:26:54.715Z,4.2
2017-03-13T02:27:57.405Z,4.2
2017-03-13T02:28:59.716Z,4.2
2017-03-13T02:30:02.361Z,4.2
2017-03-13T02:31:04.293Z,4.2
2017-03-13T02:32:06.538Z,4.2
2017-03-13T02:33:09.197Z,4.2
2017-03-13T02:34:11.880Z,4.2
2017-03-13T02:35:14.105Z,4.2
2017-03-13T02:36:15.942Z,4.2
2017-03-13T02:37:18.331Z,4.2
2017-03-13T02:38:20.591Z,4.3
2017-03-13T02:39:23.385Z,4.3
2017-03-13T02:40:25.753Z,4.3
2017-03-13T02:41:27.976Z,4.3
2017-03-13T02:42:30.635Z,4.3
2017-03-13T02:43:33.731Z,4.3
2017-03-13T02:44:35.627Z,4.3
2017-03-13T02:45:37.904Z,4.3
2017-03-13T02:46:40.996Z,4.3
2017-03-13T02:47:43.252Z,4.3
2017-03-13T02:48:46.347Z,4.3
2017-03-13T02:49:49.849Z,4.3
2017-03-13T02:50:52.512Z,4.2
2017-03-13T02:51:54.769Z,4.2
2017-03-13T02:52:57.916Z,4.2
2017-03-13T02:54:00.588Z,4.2
2017-03-13T02:55:02.400Z,4.2
2017-03-13T02:56:05.081Z,4.1
2017-03-13T02:57:06.900Z,4.2
2017-03-13T02:58:08.884Z,4.1
2017-03-13T02:59:11.119Z,4.1
2017-03-13T03:00:12.930Z,4.1
2017-03-13T03:01:15.179Z,4.1
2017-03-13T03:02:17.085Z,4
2017-03-13T03:03:19.324Z,4
2017-03-13T03:04:21.578Z,4
2017-03-13T03:05:24.019Z,4
2017-03-13T03:06:26.691Z,4
2017-03-13T03:07:28.527Z,4
2017-03-13T03:08:31.213Z,4
2017-03-13T03:09:33.469Z,4
2017-03-13T03:10:35.840Z,4
2017-03-13T03:11:38.108Z,4
2017-03-13T03:12:40.348Z,4
2017-03-13T03:13:42.163Z,4
2017-03-13T03:14:45.264Z,4
2017-03-13T03:15:47.628Z,3.9
2017-03-13T03:16:50.316Z,3.9
2017-03-13T03:17:52.540Z,4
2017-03-13T03:18:54.805Z,3.9
2017-03-13T03:19:57.055Z,3.9
2017-03-13T03:20:59.848Z,4
2017-03-13T03:22:02.127Z,3.9
2017-03-13T03:23:04.428Z,3.9
2017-03-13T03:24:07.108Z,3.9
2017-03-13T03:25:08.923Z,3.9
2017-03-13T03:26:10.750Z,3.9
2017-03-13T03:27:12.603Z,3.9
2017-03-13T03:28:14.868Z,3.9
2017-03-13T03:29:17.088Z,3.9
2017-03-13T03:30:20.165Z,3.9
2017-03-13T03:31:21.976Z,3.9
2017-03-13T03:32:24.221Z,3.9
2017-03-13T03:33:26.454Z,3.9
2017-03-13T03:34:29.124Z,3.9
2017-03-13T03:35:31.375Z,3.9
2017-03-13T03:36:33.222Z,3.9
2017-03-13T03:37:35.467Z,3.9
2017-03-13T03:38:38.114Z,3.9
2017-03-13T03:39:40.776Z,3.9
2017-03-13T03:40:43.066Z,3.9
2017-03-13T03:41:45.340Z,3.9
2017-03-13T03:42:48.437Z,3.9
2017-03-13T03:43:51.131Z,3.9
2017-03-13T03:44:53.402Z,3.9
2017-03-13T03:45:55.641Z,3.9
2017-03-13T03:46:57.450Z,3.9
2017-03-13T03:47:59.262Z,3.9
2017-03-13T03:49:01.084Z,3.9
2017-03-13T03:50:02.891Z,3.9
2017-03-13T03:51:04.705Z,3.9
2017-03-13T03:52:06.522Z,3.8
2017-03-13T03:53:08.764Z,3.9
2017-03-13T03:54:10.574Z,3.8
2017-03-13T03:55:12.801Z,3.8
2017-03-13T03:56:15.469Z,3.8
2017-03-13T03:57:18.151Z,3.8
2017-03-13T03:58:20.388Z,3.8
2017-03-13T03:59:22.198Z,3.8
2017-03-13T04:00:24.443Z,3.8
2017-03-13T04:01:27.112Z,3.8
2017-03-13T04:02:29.362Z,3.8
2017-03-13T04:03:32.033Z,3.8
2017-03-13T04:04:33.852Z,3.8
2017-03-13T04:05:35.698Z,3.8
2017-03-13T04:06:37.925Z,3.8
2017-03-13T04:07:39.738Z,3.8
2017-03-13T04:08:42.382Z,3.8
2017-03-13T04:09:45.088Z,3.8
2017-03-13T04:10:47.759Z,3.8
2017-03-13T04:11:50.425Z,3.8
2017-03-13T04:12:52.260Z,3.8
2017-03-13T04:13:54.534Z,3.7
2017-03-13T04:14:56.759Z,3.7
2017-03-13T04:15:59.838Z,3.7
2017-03-13T04:17:01.638Z,3.7
2017-03-13T04:18:04.312Z,3.7
2017-03-13T04:19:06.565Z,3.7
2017-03-13T04:20:08.407Z,3.7
2017-03-13T04:21:10.631Z,3.7
2017-03-13T04:22:13.325Z,3.7
2017-03-13T04:23:16.011Z,3.7
2017-03-13T04:24:19.521Z,3.7
2017-03-13T04:25:21.773Z,3.7
2017-03-13T04:26:24.050Z,3.7
2017-03-13T04:27:26.736Z,3.7
2017-03-13T04:28:28.991Z,3.6
2017-03-13T04:29:31.287Z,3.7
2017-03-13T04:30:33.964Z,3.6
2017-03-13T04:31:36.201Z,3.7
2017-03-13T04:32:38.878Z,3.7
2017-03-13T04:33:41.565Z,3.7
2017-03-13T04:34:44.704Z,3.7
2017-03-13T04:35:46.932Z,3.7
2017-03-13T04:36:49.171Z,3.7
2017-03-13T04:37:51.395Z,3.7
2017-03-13T04:38:53.680Z,3.7
2017-03-13T04:39:55.527Z,3.7
2017-03-13T04:40:58.190Z,3.7
2017-03-13T04:42:00.440Z,3.7
2017-03-13T04:43:02.694Z,3.7
2017-03-13T04:44:05.374Z,3.7
2017-03-13T04:45:08.041Z,3.7
2017-03-13T04:46:10.723Z,3.7
2017-03-13T04:47:13.379Z,3.7
2017-03-13T04:48:15.225Z,3.7
2017-03-13T04:49:18.293Z,3.7
2017-03-13T04:50:20.122Z,3.6
2017-03-13T04:51:22.362Z,3.6
2017-03-13T04:52:24.589Z,3.6
2017-03-13T04:53:26.818Z,3.6
2017-03-13T04:54:29.499Z,3.6
2017-03-13T04:55:31.745Z,3.6
2017-03-13T04:56:35.266Z,3.6
2017-03-13T04:57:38.365Z,3.6
2017-03-13T04:58:41.021Z,3.7
2017-03-13T04:59:43.701Z,3.6
2017-03-13T05:00:45.932Z,3.6
2017-03-13T05:01:48.608Z,3.7
2017-03-13T05:02:50.871Z,3.7
2017-03-13T05:03:53.115Z,3.7
2017-03-13T05:04:55.366Z,3.7
2017-03-13T05:05:57.624Z,3.7
2017-03-13T05:06:59.859Z,3.7
2017-03-13T05:08:01.697Z,3.7
2017-03-13T05:09:04.373Z,3.7
2017-03-13T05:10:06.186Z,3.8
2017-03-13T05:11:08.851Z,3.7
2017-03-13T05:12:11.523Z,3.8
2017-03-13T05:13:14.203Z,3.8
2017-03-13T05:14:16.428Z,3.8
2017-03-13T05:15:19.114Z,3.8
2017-03-13T05:16:21.367Z,3.8
2017-03-13T05:17:23.925Z,3.8
2017-03-13T05:18:26.594Z,3.8
2017-03-13T05:19:28.843Z,3.8
2017-03-13T05:20:31.082Z,3.8
2017-03-13T05:21:32.903Z,3.8
2017-03-13T05:22:35.966Z,3.8
2017-03-13T05:23:37.777Z,3.8
2017-03-13T05:24:40.015Z,3.8
2017-03-13T05:25:42.252Z,3.8
2017-03-13T05:26:44.053Z,3.8
2017-03-13T05:27:46.334Z,3.8
2017-03-13T05:28:48.558Z,3.8
2017-03-13T05:29:51.241Z,3.8
2017-03-13T05:30:53.462Z,3.8
2017-03-13T05:31:55.276Z,3.8
2017-03-13T05:32:57.521Z,3.8
2017-03-13T05:34:00.216Z,3.8
2017-03-13T05:35:02.871Z,3.8
2017-03-13T05:36:04.694Z,3.8
2017-03-13T05:37:06.919Z,3.8
2017-03-13T05:38:09.183Z,3.8
2017-03-13T05:39:11.019Z,3.8
2017-03-13T05:40:12.845Z,3.8
2017-03-13T05:41:15.495Z,3.9
2017-03-13T05:42:18.165Z,3.9
2017-03-13T05:43:20.841Z,3.9
2017-03-13T05:44:23.104Z,3.9
2017-03-13T05:45:25.324Z,3.9
2017-03-13T05:46:27.554Z,3.9
2017-03-13T05:47:29.367Z,3.9
2017-03-13T05:48:32.093Z,3.9
2017-03-13T05:49:34.506Z,3.9
2017-03-13T05:50:36.938Z,3.9
2017-03-13T05:51:39.312Z,3.9
2017-03-13T05:52:42.266Z,3.9
2017-03-13T05:53:45.369Z,3.9
2017-03-13T05:54:48.062Z,3.9
2017-03-13T05:55:50.329Z,3.9
2017-03-13T05:56:52.613Z,4
2017-03-13T05:57:54.854Z,4
2017-03-13T05:58:57.566Z,4
2017-03-13T05:59:59.891Z,4
2017-03-13T06:01:02.022Z,4
2017-03-13T06:02:04.273Z,4
2017-03-13T06:03:06.508Z,4
2017-03-13T06:04:08.771Z,4
2017-03-13T06:05:11.230Z,4
2017-03-13T06:06:13.505Z,4
2017-03-13T06:07:15.797Z,4
2017-03-13T06:08:18.112Z,4
2017-03-13T06:09:20.372Z,4
2017-03-13T06:10:22.185Z,4
2017-03-13T06:11:24.453Z,4.1
2017-03-13T06:12:26.316Z,4.1
2017-03-13T06:13:28.573Z,4.1
2017-03-13T06:14:30.610Z,4.1
2017-03-13T06:15:32.907Z,4.1
2017-03-13T06:16:35.564Z,4.1
2017-03-13T06:17:38.246Z,4.1
2017-03-13T06:18:40.933Z,4.1
2017-03-13T06:19:43.246Z,4.1
2017-03-13T06:20:45.136Z,4.2
2017-03-13T06:21:48.273Z,4.2
2017-03-13T06:22:51.813Z,4.2
2017-03-13T06:23:54.064Z,4.2
2017-03-13T06:24:56.312Z,4.2
2017-03-13T06:25:58.253Z,4.2
2017-03-13T06:27:00.483Z,4.2
2017-03-13T06:28:02.296Z,4.2
2017-03-13T06:29:04.553Z,4.2
2017-03-13T06:30:06.389Z,4.2
2017-03-13T06:31:08.676Z,4.3
2017-03-13T06:32:10.947Z,4.3
2017-03-13T06:33:13.684Z,4.3
2017-03-13T06:34:16.770Z,4.3
2017-03-13T06:35:19.476Z,4.3
2017-03-13T06:36:21.703Z,4.3
2017-03-13T06:37:24.350Z,4.3
2017-03-13T06:38:27.083Z,4.3
2017-03-13T06:39:29.345Z,4.3
2017-03-13T06:40:32.016Z,4.3
2017-03-13T06:41:34.698Z,4.4
2017-03-13T06:42:36.984Z,4.4
2017-03-13T06:43:39.244Z,4.5
2017-03-13T06:44:41.482Z,4.5
2017-03-13T06:45:45.070Z,4.4
2017-03-13T06:46:46.898Z,4.5
2017-03-13T06:47:49.580Z,4.5
2017-03-13T06:48:53.125Z,4.5
2017-03-13T06:49:55.404Z,4.5
2017-03-13T06:50:57.672Z,4.5
2017-03-13T06:51:59.553Z,4.5
2017-03-13T06:53:02.273Z,4.6
2017-03-13T06:54:04.096Z,4.6
2017-03-13T06:55:05.993Z,4.6
2017-03-13T06:56:08.282Z,4.6
2017-03-13T06:57:10.977Z,4.6
2017-03-13T06:58:13.676Z,4.7
2017-03-13T06:59:16.818Z,4.7
2017-03-13T07:00:19.063Z,4.7
2017-03-13T07:01:21.025Z,4.7
2017-03-13T07:02:22.914Z,4.8
2017-03-13T07:03:25.593Z,4.8
2017-03-13T07:04:27.456Z,4.8
2017-03-13T07:05:30.583Z,4.8
2017-03-13T07:06:32.822Z,4.9
2017-03-13T07:07:34.736Z,4.9
2017-03-13T07:08:36.988Z,4.9
2017-03-13T07:09:39.671Z,5
2017-03-13T07:10:42.005Z,5
2017-03-13T07:11:43.827Z,5.1
2017-03-13T07:12:45.692Z,5.1
2017-03-13T07:13:47.576Z,5.1
2017-03-13T07:14:50.284Z,5.2
2017-03-13T07:15:52.157Z,5.2
2017-03-13T07:16:54.468Z,5.3
2017-03-13T07:17:57.119Z,5.3
2017-03-13T07:18:59.791Z,5.3
2017-03-13T07:20:02.475Z,5.4
2017-03-13T07:21:04.363Z,5.4
2017-03-13T07:22:06.627Z,5.4
2017-03-13T07:23:08.438Z,5.4
2017-03-13T07:24:10.723Z,5.5
2017-03-13T07:25:13.374Z,5.5
2017-03-13T07:26:16.060Z,5.6
2017-03-13T07:27:18.777Z,5.6
2017-03-13T07:28:21.898Z,5.6
2017-03-13T07:29:25.008Z,5.7
2017-03-13T07:30:27.700Z,5.7
2017-03-13T07:31:30.857Z,5.7
2017-03-13T07:32:32.674Z,5.7
2017-03-13T07:33:34.554Z,5.8
2017-03-13T07:34:38.121Z,5.8
2017-03-13T07:35:39.993Z,5.8
2017-03-13T07:36:41.863Z,5.9
2017-03-13T07:37:44.193Z,5.9
2017-03-13T07:38:46.043Z,5.9
2017-03-13T07:39:48.724Z,6
2017-03-13T07:40:51.448Z,6
2017-03-13T07:41:53.272Z,6
2017-03-13T07:42:55.615Z,6.1
2017-03-13T07:43:58.297Z,6.1
2017-03-13T07:45:00.565Z,6.1
2017-03-13T07:46:02.390Z,6.2
2017-03-13T07:47:05.144Z,6.2
2017-03-13T07:48:06.995Z,6.3
2017-03-13T07:49:09.296Z,6.3
2017-03-13T07:50:12.452Z,6.3
2017-03-13T07:51:15.644Z,6.4
2017-03-13T07:52:17.474Z,6.4
2017-03-13T07:53:20.241Z,6.5
2017-03-13T07:54:23.429Z,6.6
2017-03-13T07:55:25.256Z,6.6
2017-03-13T07:56:28.446Z,6.6
2017-03-13T07:57:30.690Z,6.7
2017-03-13T07:58:32.544Z,6.7
2017-03-13T07:59:37.079Z,6.8
2017-03-13T08:00:39.570Z,6.8
2017-03-13T08:01:41.612Z,6.9
2017-03-13T08:02:44.310Z,6.9
2017-03-13T08:03:46.124Z,7
2017-03-13T08:04:48.067Z,7
2017-03-13T08:05:49.896Z,7.1
2017-03-13T08:06:52.560Z,7.1
2017-03-13T08:07:54.622Z,7.2
2017-03-13T08:08:56.726Z,7.3
2017-03-13T08:09:59.838Z,7.4
2017-03-13T08:11:02.106Z,7.5
2017-03-13T08:12:04.014Z,7.5
2017-03-13T08:13:05.825Z,7.6
2017-03-13T08:14:08.189Z,7.7
2017-03-13T08:15:10.013Z,7.7
2017-03-13T08:16:12.012Z,7.8
2017-03-13T08:17:14.687Z,8
2017-03-13T08:18:16.523Z,8.1
2017-03-13T08:19:18.895Z,8.2
2017-03-13T08:20:22.036Z,8.3
2017-03-13T08:21:24.728Z,8.5
2017-03-13T08:22:27.074Z,8.5
2017-03-13T08:23:29.369Z,8.7
2017-03-13T08:24:31.202Z,8.8
2017-03-13T08:25:33.117Z,9
2017-03-13T08:26:36.648Z,9.2
2017-03-13T08:27:40.296Z,9.4
2017-03-13T08:28:43.189Z,9.5
2017-03-13T08:29:45.937Z,9.7
2017-03-13T08:30:47.846Z,9.9
2017-03-13T08:31:50.113Z,10
2017-03-13T08:32:52.433Z,10.1
2017-03-13T08:33:54.689Z,10.2
2017-03-13T08:34:56.933Z,10.3
2017-03-13T08:35:58.819Z,10.4
2017-03-13T08:37:01.512Z,10.5
2017-03-13T08:38:03.846Z,10.7
2017-03-13T08:39:06.109Z,10.8
2017-03-13T08:40:08.027Z,10.9
2017-03-13T08:41:10.701Z,10.9
2017-03-13T08:42:12.527Z,11
2017-03-13T08:43:14.810Z,11.1
2017-03-13T08:44:17.491Z,11.2
2017-03-13T08:45:19.730Z,11.3
2017-03-13T08:46:21.938Z,11.4
2017-03-13T08:47:24.255Z,11.5
2017-03-13T08:48:26.992Z,11.6
2017-03-13T08:49:29.675Z,11.6
2017-03-13T08:50:32.045Z,11.6
2017-03-13T08:51:34.856Z,11.7
2017-03-13T08:52:37.100Z,11.8
2017-03-13T08:53:39.449Z,11.9
2017-03-13T08:54:41.273Z,12
2017-03-13T08:55:43.558Z,12.1
2017-03-13T08:56:45.938Z,12.2
2017-03-13T08:57:47.797Z,12.3
2017-03-13T08:58:50.043Z,12.3
2017-03-13T08:59:52.358Z,12.3
2017-03-13T09:00:54.607Z,12.4
2017-03-13T09:01:56.894Z,12.4
2017-03-13T09:02:59.592Z,12.6
2017-03-13T09:04:01.857Z,12.7
2017-03-13T09:05:04.127Z,12.8
2017-03-13T09:06:05.984Z,12.9
2017-03-13T09:07:08.669Z,12.9
2017-03-13T09:08:10.947Z,12.9
2017-03-13T09:09:12.791Z,13
2017-03-13T09:10:15.449Z,13.1
2017-03-13T09:11:17.770Z,13.3
2017-03-13T09:12:20.026Z,13.5
2017-03-13T09:13:22.299Z,13.7
2017-03-13T09:14:24.590Z,13.8
2017-03-13T09:15:27.012Z,13.8
2017-03-13T09:16:28.887Z,13.9
2017-03-13T09:17:30.725Z,13.9
2017-03-13T09:18:32.608Z,13.9
2017-03-13T09:19:35.312Z,13.9
2017-03-13T09:20:37.164Z,13.9
2017-03-13T09:21:39.193Z,13.9
2017-03-13T09:22:41.030Z,13.9
2017-03-13T09:23:43.303Z,13.9
2017-03-13T09:24:46.123Z,13.9
2017-03-13T09:25:48.402Z,13.9
2017-03-13T09:26:50.871Z,13.9
2017-03-13T09:27:53.545Z,13.9
2017-03-13T09:28:55.840Z,13.9
2017-03-13T09:29:58.606Z,13.8
2017-03-13T09:31:00.853Z,13.7
2017-03-13T09:32:02.776Z,13.6
2017-03-13T09:33:04.597Z,13.6
2017-03-13T09:34:06.847Z,13.6
2017-03-13T09:35:09.125Z,13.6
2017-03-13T09:36:11.409Z,13.5
2017-03-13T09:37:13.654Z,13.5
2017-03-13T09:38:16.333Z,13.5
2017-03-13T09:39:18.591Z,13.5
2017-03-13T09:40:21.252Z,13.5
2017-03-13T09:41:23.940Z,13.5
2017-03-13T09:42:26.204Z,13.5
2017-03-13T09:43:28.452Z,13.5
2017-03-13T09:44:30.283Z,13.5
2017-03-13T09:45:32.141Z,13.5
2017-03-13T09:46:34.466Z,13.6
2017-03-13T09:47:37.625Z,13.7
2017-03-13T09:48:39.901Z,13.7
2017-03-13T09:49:42.585Z,13.8
2017-03-13T09:50:44.446Z,13.9
2017-03-13T09:51:46.704Z,14
2017-03-13T09:52:50.225Z,14.1
2017-03-13T09:53:52.463Z,14.2
2017-03-13T09:54:54.319Z,14.3
2017-03-13T09:55:56.583Z,14.3
2017-03-13T09:56:58.858Z,14.3
2017-03-13T09:58:00.693Z,14.3
2017-03-13T09:59:03.403Z,14.3
2017-03-13T10:00:06.522Z,14.3
2017-03-13T10:01:08.767Z,14.3
2017-03-13T10:02:11.045Z,14.2
2017-03-13T10:03:13.307Z,14.2
2017-03-13T10:04:15.588Z,14.1
2017-03-13T10:05:18.252Z,14.1
2017-03-13T10:06:20.105Z,14
2017-03-13T10:07:22.405Z,14.1
2017-03-13T10:08:25.483Z,14.1
2017-03-13T10:09:28.202Z,14.2
2017-03-13T10:10:30.879Z,14.1
2017-03-13T10:11:33.147Z,14.1
2017-03-13T10:12:35.846Z,14.1
2017-03-13T10:13:38.515Z,14.1
2017-03-13T10:14:41.648Z,14.1
2017-03-13T10:15:44.352Z,14.1
2017-03-13T10:16:47.054Z,14.2
2017-03-13T10:17:49.736Z,14.2
2017-03-13T10:18:52.431Z,14.2
2017-03-13T10:19:54.690Z,14.2
2017-03-13T10:20:56.951Z,14.1
2017-03-13T10:21:58.815Z,14.1
2017-03-13T10:23:01.092Z,14
2017-03-13T10:24:03.354Z,14
2017-03-13T10:25:05.647Z,14
2017-03-13T10:26:07.482Z,13.9
2017-03-13T10:27:10.154Z,13.9
2017-03-13T10:28:12.852Z,13.8
2017-03-13T10:29:15.122Z,13.7
2017-03-13T10:30:17.811Z,13.6
2017-03-13T10:31:19.637Z,13.5
2017-03-13T10:32:21.912Z,13.4
2017-03-13T10:33:23.727Z,13.4
2017-03-13T10:34:26.807Z,13.3
2017-03-13T10:35:29.069Z,13.2
2017-03-13T10:36:30.884Z,13.2
2017-03-13T10:37:33.163Z,13.1
2017-03-13T10:38:35.890Z,13.1
2017-03-13T10:39:38.581Z,13
2017-03-13T10:40:41.270Z,13
2017-03-13T10:41:43.521Z,13
2017-03-13T10:42:46.209Z,13
2017-03-13T10:43:48.892Z,13
2017-03-13T10:44:51.171Z,12.9
2017-03-13T10:45:53.440Z,12.9
2017-03-13T10:46:56.128Z,12.9
2017-03-13T10:47:59.295Z,12.8
2017-03-13T10:49:01.124Z,12.8
2017-03-13T10:50:03.380Z,12.7
2017-03-13T10:51:05.206Z,12.6
2017-03-13T10:52:07.498Z,12.6
2017-03-13T10:53:09.329Z,12.6
2017-03-13T10:54:11.163Z,12.6
2017-03-13T10:55:13.418Z,12.6
2017-03-13T10:56:15.254Z,12.5
2017-03-13T10:57:17.098Z,12.5
2017-03-13T10:58:18.925Z,12.5
2017-03-13T10:59:20.755Z,12.5
2017-03-13T11:00:22.605Z,12.5
2017-03-13T11:01:24.423Z,12.4
2017-03-13T11:02:26.695Z,12.4
2017-03-13T11:03:28.988Z,12.4
2017-03-13T11:04:31.259Z,12.4
2017-03-13T11:05:33.517Z,12.4
2017-03-13T11:06:35.796Z,12.3
2017-03-13T11:07:38.059Z,12.3
2017-03-13T11:08:39.899Z,12.3
2017-03-13T11:09:42.177Z,12.2
2017-03-13T11:10:44.441Z,12.1
2017-03-13T11:11:46.300Z,12.2
2017-03-13T11:12:48.141Z,12.2
2017-03-13T11:13:49.977Z,12.2
2017-03-13T11:14:51.791Z,12.2
2017-03-13T11:15:53.629Z,12.3
2017-03-13T11:16:55.889Z,12.2
2017-03-13T11:17:58.160Z,12.2
2017-03-13T11:19:00.430Z,12.2
2017-03-13T11:20:02.270Z,12.2
2017-03-13T11:21:04.519Z,12.2
2017-03-13T11:22:06.374Z,12.2
2017-03-13T11:23:08.219Z,12.2
2017-03-13T11:24:10.061Z,12.2
2017-03-13T11:25:12.743Z,12.2
2017-03-13T11:26:15.426Z,12.1
2017-03-13T11:27:18.131Z,12.2
2017-03-13T11:28:19.982Z,12.1
2017-03-13T11:29:21.822Z,12.1
2017-03-13T11:30:24.944Z,12.1
2017-03-13T11:31:27.636Z,12.1
2017-03-13T11:32:29.506Z,12
2017-03-13T11:33:32.177Z,12
2017-03-13T11:34:34.851Z,12
2017-03-13T11:35:37.118Z,12
2017-03-13T11:36:39.816Z,11.9
2017-03-13T11:37:42.946Z,11.9
2017-03-13T11:38:46.039Z,11.8
2017-03-13T11:39:48.317Z,11.8
2017-03-13T11:40:51.455Z,11.7
2017-03-13T11:41:53.725Z,11.7
2017-03-13T11:42:55.993Z,11.7
2017-03-13T11:43:57.849Z,11.6
2017-03-13T11:45:00.105Z,11.7
2017-03-13T11:46:01.937Z,11.6
2017-03-13T11:47:03.749Z,11.7
2017-03-13T11:48:06.016Z,11.7
2017-03-13T11:49:08.281Z,11.7
2017-03-13T11:50:10.142Z,11.7
2017-03-13T11:51:12.857Z,11.7
2017-03-13T11:52:15.117Z,11.7
2017-03-13T11:53:17.390Z,11.7
2017-03-13T11:54:19.269Z,11.7
2017-03-13T11:55:21.964Z,11.7
2017-03-13T11:56:24.219Z,11.7
2017-03-13T11:57:26.072Z,11.7
2017-03-13T11:58:27.933Z,11.8
2017-03-13T11:59:29.793Z,11.8
2017-03-13T12:00:32.056Z,11.8
2017-03-13T12:01:34.286Z,11.7
2017-03-13T12:02:36.515Z,11.7
2017-03-13T12:03:39.201Z,11.7
2017-03-13T12:04:41.037Z,11.7
2017-03-13T12:05:43.314Z,11.7
2017-03-13T12:06:45.575Z,11.7
2017-03-13T12:07:48.260Z,11.7
2017-03-13T12:08:50.949Z,11.7
2017-03-13T12:09:54.473Z,11.7
2017-03-13T12:10:57.143Z,11.7
2017-03-13T12:11:59.829Z,11.8
2017-03-13T12:13:02.083Z,11.8
2017-03-13T12:14:03.924Z,11.9
2017-03-13T12:15:06.603Z,11.9
2017-03-13T12:16:09.295Z,12
2017-03-13T12:17:11.987Z,12
2017-03-13T12:18:14.262Z,12
2017-03-13T12:19:16.097Z,12
2017-03-13T12:20:17.922Z,12.1
2017-03-13T12:21:20.605Z,12.1
2017-03-13T12:22:23.319Z,12.1
2017-03-13T12:23:26.406Z,12.1
2017-03-13T12:24:28.249Z,12.1
2017-03-13T12:25:30.515Z,12.2
2017-03-13T12:26:32.365Z,12.2
2017-03-13T12:27:34.208Z,12.2
2017-03-13T12:28:36.461Z,12.2
2017-03-13T12:29:38.304Z,12.3
2017-03-13T12:30:40.149Z,12.3
2017-03-13T12:31:41.985Z,12.3
2017-03-13T12:32:44.672Z,12.3
2017-03-13T12:33:47.367Z,12.3
2017-03-13T12:34:49.688Z,12.3
2017-03-13T12:35:51.950Z,12.3
2017-03-13T12:36:54.185Z,12.3
2017-03-13T12:37:57.721Z,12.3
2017-03-13T12:38:59.969Z,12.4
2017-03-13T12:40:02.218Z,12.4
2017-03-13T12:41:04.024Z,12.4
2017-03-13T12:42:06.946Z,12.5
2017-03-13T12:43:09.201Z,12.5
2017-03-13T12:44:11.016Z,12.4
2017-03-13T12:45:13.727Z,12.4
2017-03-13T12:46:16.435Z,12.4
2017-03-13T12:47:18.736Z,12.3
2017-03-13T12:48:21.041Z,12.3
2017-03-13T12:49:23.731Z,12.3
2017-03-13T12:50:26.005Z,12.3
2017-03-13T12:51:28.659Z,12.3
2017-03-13T12:55:11.557Z,12.2
2017-03-13T12:56:13.387Z,12.2
2017-03-13T12:57:15.216Z,12.2
2017-03-13T12:58:17.464Z,12.2
2017-03-13T12:59:19.729Z,12.1
2017-03-13T13:00:22.805Z,12
2017-03-13T13:01:25.032Z,12
2017-03-13T13:02:26.839Z,12
2017-03-13T13:03:29.501Z,11.9
2017-03-13T13:04:32.154Z,11.9
2017-03-13T13:05:34.388Z,11.9
2017-03-13T13:06:36.650Z,11.9
2017-03-13T13:07:38.450Z,11.9
2017-03-13T13:08:41.099Z,11.9
2017-03-13T13:09:42.900Z,11.9
2017-03-13T13:10:45.135Z,11.9
2017-03-13T13:11:46.944Z,11.9
2017-03-13T13:12:48.737Z,11.8
2017-03-13T13:13:50.543Z,11.8
2017-03-13T13:14:52.349Z,11.8
2017-03-13T13:15:54.155Z,11.7
2017-03-13T13:16:55.952Z,11.7
2017-03-13T13:17:57.808Z,11.7
2017-03-13T13:19:00.035Z,11.7
2017-03-13T13:20:01.838Z,11.7
2017-03-13T13:21:04.096Z,11.7
2017-03-13T13:22:05.901Z,11.7
2017-03-13T13:23:08.123Z,11.7
2017-03-13T13:24:10.783Z,11.8
2017-03-13T13:25:13.439Z,11.8
2017-03-13T13:26:15.696Z,11.8
2017-03-13T13:27:17.927Z,11.8
2017-03-13T13:28:19.728Z,11.8
2017-03-13T13:29:22.815Z,11.9
2017-03-13T13:30:24.639Z,11.9
2017-03-13T13:31:26.863Z,11.9
2017-03-13T13:32:29.089Z,11.9
2017-03-13T13:33:30.899Z,11.9
2017-03-13T13:34:32.711Z,11.9
2017-03-13T13:35:34.516Z,11.9
2017-03-13T13:36:37.612Z,11.9
2017-03-13T13:37:39.420Z,11.9
2017-03-13T13:38:41.217Z,12
2017-03-13T13:39:43.451Z,12
2017-03-13T13:40:45.677Z,12.1
2017-03-13T13:41:47.956Z,12.1
2017-03-13T13:42:50.183Z,12.2
2017-03-13T13:43:52.412Z,12.2
2017-03-13T13:44:55.060Z,12.2
2017-03-13T13:45:57.283Z,12.3
2017-03-13T13:46:59.513Z,12.3
2017-03-13T13:48:01.734Z,12.3
2017-03-13T13:49:04.395Z,12.3
2017-03-13T13:50:06.194Z,12.2
2017-03-13T13:51:08.001Z,12.3
2017-03-13T13:52:10.250Z,12.2
2017-03-13T13:53:12.566Z,12.2
2017-03-13T13:54:14.364Z,12.3
2017-03-13T13:55:17.866Z,12.3
2017-03-13T13:56:20.513Z,12.3
2017-03-13T13:57:23.221Z,12.3
2017-03-13T13:58:26.292Z,12.4
2017-03-13T13:59:29.810Z,12.4
2017-03-13T14:00:33.897Z,12.4
2017-03-13T14:01:37.731Z,12.4
2017-03-13T14:02:40.036Z,12.4
2017-03-13T14:03:41.841Z,12.3
2017-03-13T14:04:44.078Z,12.4
2017-03-13T14:05:46.295Z,12.4
2017-03-13T14:06:48.531Z,12.4
2017-03-13T14:07:51.188Z,12.4
2017-03-13T14:08:53.835Z,12.4
2017-03-13T14:09:56.913Z,12.3
2017-03-13T14:10:58.723Z,12.4
2017-03-13T14:12:00.947Z,12.4
2017-03-13T14:13:03.191Z,12.3
2017-03-13T14:14:06.265Z,12.3
2017-03-13T14:15:08.071Z,12.4